Time;durP1;ratioP1;P1;durP2;ratioP2;P2;SDS_P1;SDS_P2;PMS_P1;PMS_P2;Temp;Humidity;BMP_temperature;BMP_pressure;BME280_temperature;BME280_humidity;BME280_pressure;Samples;Min_cycle;Max_cycle;Signal;HPM_P1;HPM_P2
2021/09/02 00:01:28;;;;;;;;;;;10.90;99.90;;;;;;4989517;28;20008;-74
2021/09/02 00:04:00;;;;;;;;;;;10.90;99.90;;;;;;4986486;28;20585;-74
2021/09/02 00:06:32;;;;;;;;;;;10.90;99.90;;;;;;4974427;28;19925;-74
2021/09/02 00:08:58;;;;;;;;;;;10.90;99.90;;;;;;4973631;28;19926;-74
2021/09/02 00:11:25;;;;;;;;;;;10.90;99.90;;;;;;4978677;28;19926;-74
2021/09/02 00:13:52;;;;;;;;;;;10.90;99.90;;;;;;4995764;28;19926;-74
2021/09/02 00:16:23;;;;;;;;;;;10.90;99.90;;;;;;4978900;28;19930;-74
2021/09/02 00:18:55;;;;;;;;;;;10.80;99.90;;;;;;4994536;28;19976;-74
2021/09/02 00:21:27;;;;;;;;;;;10.80;99.90;;;;;;4979058;28;19980;-74
2021/09/02 00:23:58;;;;;;;;;;;10.80;99.90;;;;;;4994604;28;20012;-74
2021/09/02 00:26:25;;;;;;;;;;;10.70;99.90;;;;;;4994394;28;20398;-74
2021/09/02 00:28:52;;;;;;;;;;;10.70;99.90;;;;;;4962151;28;19981;-74
2021/09/02 00:31:23;;;;;;;;;;;10.80;99.90;;;;;;4994497;28;19933;-74
2021/09/02 00:33:50;;;;;;;;;;;10.70;99.90;;;;;;4995568;28;20028;-74
2021/09/02 00:36:17;;;;;;;;;;;10.70;99.90;;;;;;4993762;28;20020;-74
2021/09/02 00:38:48;;;;;;;;;;;10.70;99.90;;;;;;4977880;28;20020;-74
2021/09/02 00:41:15;;;;;;;;;;;10.70;99.90;;;;;;4994097;28;20020;-74
2021/09/02 00:43:42;;;;;;;;;;;10.60;99.90;;;;;;4977552;28;20024;-74
2021/09/02 00:46:16;;;;;;;;;;;10.60;99.90;;;;;;4977601;28;20367;-74
2021/09/02 00:48:48;;;;;;;;;;;10.60;99.90;;;;;;4977657;28;19969;-74
2021/09/02 00:51:21;;;;;;;;;;;10.60;99.90;;;;;;4977605;28;20032;-74
2021/09/02 00:53:54;;;;;;;;;;;10.50;99.90;;;;;;4962238;28;19948;-74
2021/09/02 00:56:27;;;;;;;;;;;10.50;99.90;;;;;;4978309;28;19949;-74
2021/09/02 00:58:58;;;;;;;;;;;10.50;99.90;;;;;;4961922;28;19969;-74
2021/09/02 01:01:25;;;;;;;;;;;10.50;99.90;;;;;;4993285;28;20029;-74
2021/09/02 01:03:52;;;;;;;;;;;10.50;99.90;;;;;;4976807;28;20020;-74
2021/09/02 01:06:18;;;;;;;;;;;10.40;99.90;;;;;;4976416;28;20024;-74
2021/09/02 01:08:45;;;;;;;;;;;10.30;99.90;;;;;;4976539;28;19965;-74
2021/09/02 01:11:12;;;;;;;;;;;10.20;99.90;;;;;;4976577;28;19948;-74
2021/09/02 01:13:44;;;;;;;;;;;10.20;99.90;;;;;;4977541;28;19929;-74
2021/09/02 01:16:11;;;;;;;;;;;10.20;99.90;;;;;;4976282;28;20291;-74
2021/09/02 01:18:37;;;;;;;;;;;10.20;99.90;;;;;;4976356;28;20028;-74
2021/09/02 01:21:04;;;;;;;;;;;10.20;99.90;;;;;;4991783;28;20021;-75
2021/09/02 01:23:37;;;;;;;;;;;10.20;99.90;;;;;;4977049;28;20072;-75
2021/09/02 01:26:15;;;;;;;;;;;10.20;99.90;;;;;;4993997;28;19930;-75
2021/09/02 01:28:47;;;;;;;;;;;10.20;99.90;;;;;;4976687;28;19925;-74
2021/09/02 01:31:19;;;;;;;;;;;10.20;99.90;;;;;;4976786;28;20032;-74
2021/09/02 01:33:46;;;;;;;;;;;10.20;99.90;;;;;;4993672;28;19971;-74
2021/09/02 01:36:18;;;;;;;;;;;10.20;99.90;;;;;;4975017;28;20359;-74
2021/09/02 01:38:45;;;;;;;;;;;10.20;99.90;;;;;;4959933;28;20016;-74
2021/09/02 01:41:16;;;;;;;;;;;10.20;99.90;;;;;;4975969;28;19926;-73
2021/09/02 01:43:51;;;;;;;;;;;10.10;99.90;;;;;;4975916;28;19932;-74
2021/09/02 01:46:23;;;;;;;;;;;10.10;99.90;;;;;;4993449;28;19947;-75
2021/09/02 01:48:53;;;;;;;;;;;10.00;99.90;;;;;;4993814;28;19926;-74
2021/09/02 01:51:25;;;;;;;;;;;10.00;99.90;;;;;;4976226;28;20414;-76
2021/09/02 01:53:52;;;;;;;;;;;10.00;99.90;;;;;;4976311;28;20346;-74
2021/09/02 01:56:18;;;;;;;;;;;9.90;99.90;;;;;;4993662;28;20077;-75
2021/09/02 01:58:45;;;;;;;;;;;9.90;99.90;;;;;;4992414;28;19934;-74
2021/09/02 02:01:17;;;;;;;;;;;10.00;99.90;;;;;;4976343;28;19965;-74
2021/09/02 02:03:43;;;;;;;;;;;9.90;99.90;;;;;;4976154;28;20024;-74
2021/09/02 02:06:15;;;;;;;;;;;9.90;99.90;;;;;;4976697;28;19930;-74
2021/09/02 02:08:47;;;;;;;;;;;9.90;99.90;;;;;;4976063;28;19932;-74
2021/09/02 02:11:18;;;;;;;;;;;9.80;99.90;;;;;;4992179;28;19951;-74
2021/09/02 02:13:50;;;;;;;;;;;9.70;99.90;;;;;;4976162;28;20344;-73
2021/09/02 02:16:21;;;;;;;;;;;9.70;99.90;;;;;;4975697;28;19932;-74
2021/09/02 02:18:48;;;;;;;;;;;9.70;99.90;;;;;;4993081;28;19970;-74
2021/09/02 02:21:20;;;;;;;;;;;9.60;99.90;;;;;;4975923;28;20025;-74
2021/09/02 02:23:51;;;;;;;;;;;9.40;99.90;;;;;;4992172;28;20016;-74
2021/09/02 02:26:23;;;;;;;;;;;9.40;99.90;;;;;;4976342;28;19925;-74
2021/09/02 02:28:55;;;;;;;;;;;9.40;99.90;;;;;;4992083;28;19957;-74
2021/09/02 02:31:27;;;;;;;;;;;9.40;99.90;;;;;;4975454;28;19969;-74
2021/09/02 02:33:53;;;;;;;;;;;9.40;99.90;;;;;;4975882;28;20024;-74
2021/09/02 02:36:20;;;;;;;;;;;9.50;99.90;;;;;;4975653;28;20347;-75
2021/09/02 02:38:52;;;;;;;;;;;9.40;99.90;;;;;;4993122;28;19932;-74
2021/09/02 02:41:18;;;;;;;;;;;9.40;99.90;;;;;;4975503;28;19976;-75
2021/09/02 02:43:50;;;;;;;;;;;9.40;99.90;;;;;;4991836;28;19957;-75
2021/09/02 02:46:17;;;;;;;;;;;9.40;99.90;;;;;;4975241;28;19933;-74
2021/09/02 02:48:48;;;;;;;;;;;9.30;99.90;;;;;;4960107;28;20391;-75
2021/09/02 02:51:15;;;;;;;;;;;9.20;99.90;;;;;;4975562;28;19936;-74
2021/09/02 02:53:42;;;;;;;;;;;9.20;99.90;;;;;;4975422;28;20025;-75
2021/09/02 02:56:09;;;;;;;;;;;9.10;99.90;;;;;;4974894;28;19926;-74
2021/09/02 02:58:35;;;;;;;;;;;9.10;99.90;;;;;;4975125;28;20032;-74
2021/09/02 03:01:02;;;;;;;;;;;9.10;99.90;;;;;;4991531;28;20467;-75
2021/09/02 03:03:34;;;;;;;;;;;9.20;99.90;;;;;;4976122;28;19932;-75
2021/09/02 03:06:00;;;;;;;;;;;9.20;99.90;;;;;;4975206;28;20021;-74
2021/09/02 03:08:27;;;;;;;;;;;9.20;99.90;;;;;;4992545;28;20028;-74
2021/09/02 03:10:54;;;;;;;;;;;9.20;99.90;;;;;;4975158;28;19953;-74
2021/09/02 03:13:20;;;;;;;;;;;9.20;99.90;;;;;;4975199;28;19981;-75
2021/09/02 03:15:52;;;;;;;;;;;9.20;99.90;;;;;;4991148;28;20307;-74
2021/09/02 03:18:23;;;;;;;;;;;9.30;99.90;;;;;;4959759;28;19932;-74
2021/09/02 03:20:50;;;;;;;;;;;9.30;99.90;;;;;;4975145;28;20008;-74
2021/09/02 03:23:22;;;;;;;;;;;9.30;99.90;;;;;;4975144;28;19960;-74
2021/09/02 03:25:54;;;;;;;;;;;9.20;99.90;;;;;;4974838;28;20296;-75
2021/09/02 03:28:25;;;;;;;;;;;9.20;99.90;;;;;;4974924;28;20412;-74
2021/09/02 03:30:52;;;;;;;;;;;9.20;99.90;;;;;;4975024;28;19992;-74
2021/09/02 03:33:18;;;;;;;;;;;9.10;99.90;;;;;;4991259;28;20020;-74
2021/09/02 03:35:50;;;;;;;;;;;9.10;99.90;;;;;;4975383;28;19932;-75
2021/09/02 03:38:22;;;;;;;;;;;9.10;99.90;;;;;;4974969;28;19952;-74
2021/09/02 03:40:53;;;;;;;;;;;9.00;99.90;;;;;;4992473;28;20097;-74
2021/09/02 03:43:25;;;;;;;;;;;9.00;99.90;;;;;;4975382;28;20193;-74
2021/09/02 03:45:52;;;;;;;;;;;9.00;99.90;;;;;;4978498;28;19926;-74
2021/09/02 03:48:23;;;;;;;;;;;9.00;99.90;;;;;;4978531;28;19926;-75
2021/09/02 03:50:50;;;;;;;;;;;8.90;99.90;;;;;;4978260;28;19984;-75
2021/09/02 03:53:16;;;;;;;;;;;8.90;99.90;;;;;;4977986;28;20049;-75
2021/09/02 03:55:48;;;;;;;;;;;8.90;99.90;;;;;;4994049;28;19932;-75
2021/09/02 03:58:20;;;;;;;;;;;8.90;99.90;;;;;;4977734;28;20369;-75
2021/09/02 04:00:51;;;;;;;;;;;8.90;99.90;;;;;;4978636;28;19932;-74
2021/09/02 04:03:23;;;;;;;;;;;8.90;99.90;;;;;;4977853;28;19980;-75
2021/09/02 04:05:55;;;;;;;;;;;8.80;99.90;;;;;;4977434;28;19933;-75
2021/09/02 04:08:26;;;;;;;;;;;8.80;99.90;;;;;;4977570;28;19926;-75
2021/09/02 04:10:58;;;;;;;;;;;8.80;99.90;;;;;;4995179;28;20411;-74
2021/09/02 04:13:30;;;;;;;;;;;8.80;99.90;;;;;;4993899;28;20030;-75
2021/09/02 04:15:56;;;;;;;;;;;8.80;99.90;;;;;;4977273;28;20384;-74
2021/09/02 04:18:23;;;;;;;;;;;8.70;99.90;;;;;;4995107;28;19969;-75
2021/09/02 04:20:55;;;;;;;;;;;8.70;99.90;;;;;;4993687;28;19926;-74
2021/09/02 04:23:21;;;;;;;;;;;8.60;99.90;;;;;;4977411;28;20028;-75
2021/09/02 04:25:48;;;;;;;;;;;8.60;99.90;;;;;;4977408;28;20012;-75
2021/09/02 04:28:20;;;;;;;;;;;8.60;99.90;;;;;;4977261;28;19926;-75
2021/09/02 04:30:46;;;;;;;;;;;8.60;99.90;;;;;;4977320;28;20020;-75
2021/09/02 04:33:18;;;;;;;;;;;8.60;99.90;;;;;;4993598;28;19925;-74
2021/09/02 04:35:49;;;;;;;;;;;8.50;99.90;;;;;;4993659;28;20404;-75
2021/09/02 04:38:21;;;;;;;;;;;8.50;99.90;;;;;;4977351;28;19932;-75
2021/09/02 04:40:49;;;;;;;;;;;8.50;99.90;;;;;;4977617;28;20024;-75
2021/09/02 04:43:15;;;;;;;;;;;8.40;99.90;;;;;;4977675;28;19964;-74
2021/09/02 04:45:47;;;;;;;;;;;8.40;99.90;;;;;;4978243;28;20003;-74
2021/09/02 04:48:20;;;;;;;;;;;8.50;99.90;;;;;;4977539;28;20398;-75
2021/09/02 04:50:52;;;;;;;;;;;8.40;99.90;;;;;;4962347;28;19932;-75
2021/09/02 04:53:19;;;;;;;;;;;8.40;99.90;;;;;;4993838;28;19967;-75
2021/09/02 04:55:50;;;;;;;;;;;8.40;99.90;;;;;;4977027;28;19932;-74
2021/09/02 04:58:17;;;;;;;;;;;8.40;99.90;;;;;;4993679;28;20032;-74
2021/09/02 05:00:44;;;;;;;;;;;8.30;99.90;;;;;;4977503;28;20020;-74
2021/09/02 05:03:15;;;;;;;;;;;8.30;99.90;;;;;;4994685;28;19934;-75
2021/09/02 05:05:42;;;;;;;;;;;8.30;99.90;;;;;;4994419;28;20016;-75
2021/09/02 05:08:09;;;;;;;;;;;8.30;99.90;;;;;;4977148;28;20025;-75
2021/09/02 05:10:35;;;;;;;;;;;8.20;99.90;;;;;;4977254;28;20026;-74
2021/09/02 05:13:07;;;;;;;;;;;8.20;99.90;;;;;;4977189;28;19926;-75
2021/09/02 05:15:39;;;;;;;;;;;8.30;99.90;;;;;;4994189;28;19927;-74
2021/09/02 05:18:05;;;;;;;;;;;8.20;99.90;;;;;;4977020;28;19932;-74
2021/09/02 05:20:32;;;;;;;;;;;8.30;99.90;;;;;;4976835;28;20012;-75
2021/09/02 05:23:04;;;;;;;;;;;8.30;99.90;;;;;;4994600;28;20315;-74
2021/09/02 05:25:35;;;;;;;;;;;8.30;99.90;;;;;;4977504;28;19951;-75
2021/09/02 05:28:02;;;;;;;;;;;8.30;99.90;;;;;;4976912;28;19933;-74
2021/09/02 05:30:34;;;;;;;;;;;8.40;99.90;;;;;;4976852;28;20284;-77
2021/09/02 05:33:05;;;;;;;;;;;8.40;99.90;;;;;;4967387;28;19940;-74
2021/09/02 05:35:32;;;;;;;;;;;8.40;99.90;;;;;;4986262;28;19949;-74
2021/09/02 05:38:04;;;;;;;;;;;8.50;99.90;;;;;;4992187;28;20438;-75
2021/09/02 05:40:35;;;;;;;;;;;8.50;99.90;;;;;;4972093;28;20413;-75
2021/09/02 05:43:07;;;;;;;;;;;8.50;99.90;;;;;;4973359;28;19929;-75
2021/09/02 05:45:39;;;;;;;;;;;8.50;99.90;;;;;;4992007;28;20020;-74
2021/09/02 05:48:05;;;;;;;;;;;8.50;99.90;;;;;;4976198;28;20032;-74
2021/09/02 05:50:32;;;;;;;;;;;8.60;99.90;;;;;;4973090;28;20264;-74
2021/09/02 05:52:59;;;;;;;;;;;8.70;99.90;;;;;;4968365;28;19930;-74
2021/09/02 05:55:25;;;;;;;;;;;8.70;99.90;;;;;;4967882;28;19936;-75
2021/09/02 05:57:52;;;;;;;;;;;8.70;99.90;;;;;;4992978;28;20016;-74
2021/09/02 06:00:24;;;;;;;;;;;8.70;99.90;;;;;;4979642;28;19926;-75
2021/09/02 06:02:55;;;;;;;;;;;8.80;99.90;;;;;;4991540;28;19930;-75
2021/09/02 06:05:22;;;;;;;;;;;8.90;99.90;;;;;;4975322;28;20344;-73
2021/09/02 06:07:54;;;;;;;;;;;8.90;99.90;;;;;;4990454;28;19926;-74
2021/09/02 06:10:20;;;;;;;;;;;8.90;99.90;;;;;;4991810;28;20016;-74
2021/09/02 06:12:47;;;;;;;;;;;9.00;99.90;;;;;;4999222;28;20468;-74
2021/09/02 06:15:19;;;;;;;;;;;9.10;99.90;;;;;;4973134;28;20380;-75
2021/09/02 06:17:50;;;;;;;;;;;9.20;99.90;;;;;;4991053;28;19932;-74
2021/09/02 06:20:24;;;;;;;;;;;9.20;99.90;;;;;;4975739;28;20024;-74
2021/09/02 06:22:51;;;;;;;;;;;9.20;99.90;;;;;;4975358;28;20452;-74
2021/09/02 06:25:18;;;;;;;;;;;9.30;99.90;;;;;;4981389;28;20024;-74
2021/09/02 06:27:45;;;;;;;;;;;9.30;99.90;;;;;;4987898;28;20032;-74
2021/09/02 06:30:16;;;;;;;;;;;9.40;99.90;;;;;;4960644;28;19930;-74
2021/09/02 06:32:43;;;;;;;;;;;9.40;99.90;;;;;;4996499;28;20349;-74
2021/09/02 06:35:10;;;;;;;;;;;9.50;99.90;;;;;;4978073;28;20020;-74
2021/09/02 06:37:41;;;;;;;;;;;9.50;99.90;;;;;;4986460;28;20021;-74
2021/09/02 06:40:09;;;;;;;;;;;9.60;99.90;;;;;;4999660;28;20016;-74
2021/09/02 06:42:41;;;;;;;;;;;9.60;99.90;;;;;;4960681;28;19961;-74
2021/09/02 06:45:08;;;;;;;;;;;9.70;99.90;;;;;;4985410;28;19925;-75
2021/09/02 06:47:36;;;;;;;;;;;9.60;99.90;;;;;;4976704;28;19965;-73
2021/09/02 06:50:09;;;;;;;;;;;9.70;99.90;;;;;;4988146;28;20346;-73
2021/09/02 06:52:35;;;;;;;;;;;9.80;99.90;;;;;;4983852;28;20380;-73
2021/09/02 06:55:03;;;;;;;;;;;9.90;99.90;;;;;;4997930;28;19980;-72
2021/09/02 06:57:30;;;;;;;;;;;9.90;99.90;;;;;;4986898;28;19933;-73
2021/09/02 07:00:04;;;;;;;;;;;10.00;99.90;;;;;;4974625;28;19930;-73
2021/09/02 07:02:30;;;;;;;;;;;10.10;99.90;;;;;;4980208;28;20044;-74
2021/09/02 07:04:57;;;;;;;;;;;10.10;99.90;;;;;;4995535;28;19965;-75
2021/09/02 07:07:23;;;;;;;;;;;10.20;99.90;;;;;;4978967;28;20467;-74
2021/09/02 07:09:50;;;;;;;;;;;10.20;99.90;;;;;;4981391;28;20021;-74
2021/09/02 07:12:22;;;;;;;;;;;10.40;99.90;;;;;;4987143;28;19925;-75
2021/09/02 07:14:53;;;;;;;;;;;10.40;99.90;;;;;;4974832;28;20422;-74
2021/09/02 07:17:20;;;;;;;;;;;10.50;99.90;;;;;;4990307;28;19980;-74
2021/09/02 07:19:52;;;;;;;;;;;10.60;99.90;;;;;;4998534;28;19932;-74
2021/09/02 07:22:19;;;;;;;;;;;10.70;99.90;;;;;;4986893;28;20412;-73
2021/09/02 07:24:50;;;;;;;;;;;10.80;99.90;;;;;;4979123;28;19962;-74
2021/09/02 07:27:17;;;;;;;;;;;10.90;99.90;;;;;;4973827;28;20032;-74
2021/09/02 07:29:44;;;;;;;;;;;11.00;99.90;;;;;;4984629;28;19969;-74
2021/09/02 07:32:15;;;;;;;;;;;11.10;99.90;;;;;;4993761;28;20020;-74
2021/09/02 07:34:43;;;;;;;;;;;11.20;99.90;;;;;;4994877;28;20013;-74
2021/09/02 07:37:10;;;;;;;;;;;11.30;99.90;;;;;;4977317;28;20017;-74
2021/09/02 07:39:43;;;;;;;;;;;11.50;99.90;;;;;;4992485;28;19945;-74
2021/09/02 07:42:09;;;;;;;;;;;11.60;99.90;;;;;;4975040;28;19926;-74
2021/09/02 07:44:42;;;;;;;;;;;11.70;99.90;;;;;;4977171;28;19930;-74
2021/09/02 07:47:14;;;;;;;;;;;11.80;99.90;;;;;;4977899;28;19929;-74
2021/09/02 07:49:46;;;;;;;;;;;12.00;99.90;;;;;;4977182;28;20059;-74
2021/09/02 07:52:13;;;;;;;;;;;12.20;99.90;;;;;;5004057;28;20029;-74
2021/09/02 07:54:45;;;;;;;;;;;12.30;99.90;;;;;;4994442;28;19969;-74
2021/09/02 07:57:12;;;;;;;;;;;12.50;99.90;;;;;;4987639;28;19927;-74
2021/09/02 07:59:40;;;;;;;;;;;12.60;99.90;;;;;;4994989;28;19929;-74
2021/09/02 08:02:11;;;;;;;;;;;12.70;99.90;;;;;;4962416;28;19953;-74
2021/09/02 08:04:38;;;;;;;;;;;12.90;99.90;;;;;;4997947;28;19996;-74
2021/09/02 08:07:05;;;;;;;;;;;13.00;99.90;;;;;;4983854;28;19933;-74
2021/09/02 08:09:31;;;;;;;;;;;13.20;99.90;;;;;;4995640;28;20301;-74
2021/09/02 08:11:58;;;;;;;;;;;13.40;99.90;;;;;;5013445;28;19972;-75
2021/09/02 08:14:25;;;;;;;;;;;13.50;99.90;;;;;;4989463;28;19932;-73
2021/09/02 08:16:57;;;;;;;;;;;13.60;99.90;;;;;;4993066;28;20016;-75
2021/09/02 08:19:24;;;;;;;;;;;13.80;99.90;;;;;;4960144;28;19926;-74
2021/09/02 08:21:50;;;;;;;;;;;14.00;99.90;;;;;;4982565;28;20291;-73
2021/09/02 08:24:22;;;;;;;;;;;14.20;99.90;;;;;;4978304;28;20036;-74
2021/09/02 08:26:49;;;;;;;;;;;14.30;99.90;;;;;;4987603;28;19977;-75
2021/09/02 08:29:20;;;;;;;;;;;14.50;99.90;;;;;;4976859;28;20050;-75
2021/09/02 08:31:47;;;;;;;;;;;14.60;99.90;;;;;;4977385;28;19961;-74
2021/09/02 08:34:19;;;;;;;;;;;14.80;99.90;;;;;;4994473;28;20021;-74
2021/09/02 08:36:46;;;;;;;;;;;15.00;99.90;;;;;;4984558;28;19973;-75
2021/09/02 08:39:18;;;;;;;;;;;15.10;99.90;;;;;;4993493;28;20016;-75
2021/09/02 08:41:45;;;;;;;;;;;15.30;99.90;;;;;;4984845;28;19934;-75
2021/09/02 08:44:16;;;;;;;;;;;15.40;99.90;;;;;;4993087;28;20035;-75
2021/09/02 08:46:43;;;;;;;;;;;15.60;99.90;;;;;;4992939;28;19972;-75
2021/09/02 08:49:18;;;;;;;;;;;15.80;99.90;;;;;;4993150;28;19977;-74
2021/09/02 08:51:45;;;;;;;;;;;16.00;99.90;;;;;;4993390;28;19968;-75
2021/09/02 08:54:20;;;;;;;;;;;16.10;99.90;;;;;;4993854;28;20032;-75
2021/09/02 08:56:46;;;;;;;;;;;16.30;99.90;;;;;;4977269;28;19969;-75
2021/09/02 08:59:13;;;;;;;;;;;16.50;99.90;;;;;;4993060;28;19925;-75
2021/09/02 09:01:48;;;;;;;;;;;16.60;99.90;;;;;;4992691;28;20016;-75
2021/09/02 09:04:16;;;;;;;;;;;16.70;99.90;;;;;;4992327;28;19925;-74
2021/09/02 09:06:42;;;;;;;;;;;16.80;99.90;;;;;;4992815;28;20017;-76
2021/09/02 09:09:15;;;;;;;;;;;16.90;99.90;;;;;;4994002;28;19926;-73
2021/09/02 09:11:48;;;;;;;;;;;17.00;99.90;;;;;;4977495;28;19929;-75
2021/09/02 09:14:20;;;;;;;;;;;17.10;99.90;;;;;;4976026;28;20578;-76
2021/09/02 09:16:51;;;;;;;;;;;17.20;99.90;;;;;;4977215;28;20037;-74
2021/09/02 09:19:49;;;;;;;;;;;17.40;99.90;;;;;;4977425;28;19936;-74
2021/09/02 09:22:22;;;;;;;;;;;17.50;99.90;;;;;;4974074;28;20315;-74
2021/09/02 09:24:55;;;;;;;;;;;17.60;99.90;;;;;;5013574;28;19931;-74
2021/09/02 09:27:33;;;;;;;;;;;17.70;99.90;;;;;;4996526;28;20015;-74
2021/09/02 09:30:15;;;;;;;;;;;17.80;99.90;;;;;;4996778;28;19926;-74
2021/09/02 09:32:48;;;;;;;;;;;17.90;99.90;;;;;;4995794;28;19936;-74
2021/09/02 09:35:17;;;;;;;;;;;18.10;99.90;;;;;;4984781;28;20033;-73
2021/09/02 09:37:50;;;;;;;;;;;18.20;99.90;;;;;;4960832;28;19932;-74
2021/09/02 09:40:22;;;;;;;;;;;18.30;99.90;;;;;;4960980;28;19932;-74
2021/09/02 09:42:54;;;;;;;;;;;18.40;99.90;;;;;;4993551;28;19934;-74
2021/09/02 09:45:32;;;;;;;;;;;18.50;99.90;;;;;;4956278;28;19946;-74
2021/09/02 09:48:04;;;;;;;;;;;18.50;99.90;;;;;;4969683;28;19926;-74
2021/09/02 09:50:35;;;;;;;;;;;18.70;99.90;;;;;;4990229;28;20337;-74
2021/09/02 09:53:22;;;;;;;;;;;18.70;99.90;;;;;;4981066;28;20017;-74
2021/09/02 09:55:48;;;;;;;;;;;18.80;99.90;;;;;;4978705;28;20459;-73
2021/09/02 09:58:24;;;;;;;;;;;19.00;99.90;;;;;;4975793;28;19930;-74
2021/09/02 10:00:53;;;;;;;;;;;19.00;99.90;;;;;;4978538;28;19926;-74
2021/09/02 10:03:25;;;;;;;;;;;19.20;99.90;;;;;;4982334;28;20381;-74
2021/09/02 10:05:52;;;;;;;;;;;19.30;99.90;;;;;;4962497;28;19926;-75
2021/09/02 10:08:26;;;;;;;;;;;19.40;99.90;;;;;;4970554;28;19926;-73
2021/09/02 10:10:53;;;;;;;;;;;19.50;99.90;;;;;;4962620;28;20455;-72
2021/09/02 10:13:24;;;;;;;;;;;19.60;99.90;;;;;;4973638;28;19932;-74
2021/09/02 10:15:56;;;;;;;;;;;19.60;99.90;;;;;;4964838;28;19930;-75
2021/09/02 10:18:29;;;;;;;;;;;19.70;99.90;;;;;;4976314;28;19925;-74
2021/09/02 10:21:03;;;;;;;;;;;19.80;99.90;;;;;;4969327;28;19926;-74
2021/09/02 10:23:34;;;;;;;;;;;19.90;99.90;;;;;;4996488;28;19926;-73
2021/09/02 10:26:02;;;;;;;;;;;19.90;99.90;;;;;;4974331;28;19976;-72
2021/09/02 10:28:34;;;;;;;;;;;20.00;99.90;;;;;;4961800;28;20340;-72
2021/09/02 10:31:07;;;;;;;;;;;20.00;99.90;;;;;;4983108;28;19940;-72
2021/09/02 10:33:38;;;;;;;;;;;20.10;99.90;;;;;;4974251;28;20009;-73
2021/09/02 10:36:11;;;;;;;;;;;20.10;99.90;;;;;;4978068;28;19933;-71
2021/09/02 10:38:44;;;;;;;;;;;20.20;99.90;;;;;;4975209;28;20001;-73
2021/09/02 10:41:11;;;;;;;;;;;20.30;99.90;;;;;;4990831;28;20126;-73
2021/09/02 10:43:53;;;;;;;;;;;20.50;99.90;;;;;;4974250;28;20020;-73
2021/09/02 10:46:46;;;;;;;;;;;20.50;99.90;;;;;;4990021;28;19962;-74
2021/09/02 10:49:29;;;;;;;;;;;20.60;99.90;;;;;;4992258;28;19925;-73
2021/09/02 10:52:00;;;;;;;;;;;20.60;99.90;;;;;;4977874;28;20049;-73
2021/09/02 10:54:28;;;;;;;;;;;20.70;99.90;;;;;;4988724;28;20041;-73
2021/09/02 10:56:56;;;;;;;;;;;20.70;99.90;;;;;;4986116;28;20013;-74
2021/09/02 10:59:47;;;;;;;;;;;20.70;99.90;;;;;;4974001;28;20020;-73
2021/09/02 11:02:17;;;;;;;;;;;20.70;99.90;;;;;;4985289;28;19932;-72
2021/09/02 11:04:58;;;;;;;;;;;20.80;99.90;;;;;;4988679;28;19930;-74
2021/09/02 11:07:43;;;;;;;;;;;20.90;99.90;;;;;;4989943;28;19932;-72
2021/09/02 11:10:09;;;;;;;;;;;20.90;99.90;;;;;;4984954;28;20350;-73
2021/09/02 11:12:36;;;;;;;;;;;21.00;99.90;;;;;;4986685;28;19961;-71
2021/09/02 11:15:09;;;;;;;;;;;21.10;99.90;;;;;;4958544;28;19936;-73
2021/09/02 11:17:48;;;;;;;;;;;21.10;99.90;;;;;;4954828;28;19945;-72
2021/09/02 11:20:21;;;;;;;;;;;21.30;99.90;;;;;;4967724;28;20402;-74
2021/09/02 11:22:48;;;;;;;;;;;21.30;99.90;;;;;;4972284;28;20020;-74
2021/09/02 11:25:15;;;;;;;;;;;21.40;99.90;;;;;;4961038;28;20012;-74
2021/09/02 11:27:42;;;;;;;;;;;21.40;99.90;;;;;;4975018;28;20371;-73
2021/09/02 11:30:18;;;;;;;;;;;21.50;99.90;;;;;;4972938;28;20040;-72
2021/09/02 11:33:00;;;;;;;;;;;21.60;99.90;;;;;;4990662;28;19932;-72
2021/09/02 11:35:32;;;;;;;;;;;21.60;99.90;;;;;;4973991;28;20089;-73
2021/09/02 11:38:04;;;;;;;;;;;21.60;99.90;;;;;;4989541;28;20456;-72
2021/09/02 11:40:37;;;;;;;;;;;21.70;99.90;;;;;;4976097;28;20016;-74
2021/09/02 11:43:16;;;;;;;;;;;21.80;99.90;;;;;;5007840;28;20388;-72
2021/09/02 11:45:48;;;;;;;;;;;21.80;99.90;;;;;;4973849;28;19933;-73
2021/09/02 11:48:20;;;;;;;;;;;21.90;99.90;;;;;;4972761;28;20013;-73
2021/09/02 11:50:56;;;;;;;;;;;21.90;99.90;;;;;;4989299;28;20618;-73
2021/09/02 11:53:31;;;;;;;;;;;22.00;99.90;;;;;;4974830;28;19936;-73
2021/09/02 11:56:11;;;;;;;;;;;22.10;99.90;;;;;;4990340;28;20037;-73
2021/09/02 11:58:42;;;;;;;;;;;22.10;99.90;;;;;;4960350;28;19925;-72
2021/09/02 12:01:14;;;;;;;;;;;22.10;99.90;;;;;;4972882;28;19925;-73
2021/09/02 12:03:50;;;;;;;;;;;22.10;99.90;;;;;;4971610;28;19933;-73
2021/09/02 12:06:31;;;;;;;;;;;22.20;99.90;;;;;;4987219;28;19930;-72
2021/09/02 12:09:03;;;;;;;;;;;22.30;99.90;;;;;;4973522;28;20300;-73
2021/09/02 12:11:38;;;;;;;;;;;22.40;99.90;;;;;;4976552;28;19925;-72
2021/09/02 12:14:23;;;;;;;;;;;22.40;99.90;;;;;;4971669;28;20020;-73
2021/09/02 12:17:08;;;;;;;;;;;22.40;99.90;;;;;;4969501;28;20455;-73
2021/09/02 12:19:51;;;;;;;;;;;22.50;99.90;;;;;;4976770;28;20440;-72
2021/09/02 12:22:29;;;;;;;;;;;22.50;99.90;;;;;;4960868;28;19932;-73
2021/09/02 12:25:11;;;;;;;;;;;22.60;99.90;;;;;;4976353;28;19925;-75
2021/09/02 12:27:44;;;;;;;;;;;22.70;99.90;;;;;;4976527;28;20358;-73
2021/09/02 12:30:11;;;;;;;;;;;22.70;99.90;;;;;;4976320;28;20037;-73
2021/09/02 12:32:43;;;;;;;;;;;22.70;99.90;;;;;;4976008;28;19932;-72
2021/09/02 12:35:17;;;;;;;;;;;22.70;99.90;;;;;;4989581;28;19926;-74
2021/09/02 12:37:44;;;;;;;;;;;22.70;99.90;;;;;;4989058;28;20299;-72
2021/09/02 12:40:12;;;;;;;;;;;22.80;99.90;;;;;;4971575;28;20032;-74
2021/09/02 12:42:44;;;;;;;;;;;22.80;99.90;;;;;;4982941;28;19926;-73
2021/09/02 12:45:20;;;;;;;;;;;22.80;99.90;;;;;;4963569;28;20291;-74
2021/09/02 12:47:58;;;;;;;;;;;23.00;99.90;;;;;;4959203;28;19937;-74
2021/09/02 12:50:27;;;;;;;;;;;23.00;99.90;;;;;;4974099;28;19925;-73
2021/09/02 12:52:53;;;;;;;;;;;23.00;99.90;;;;;;4993395;28;20484;-73
2021/09/02 12:55:22;;;;;;;;;;;23.00;99.90;;;;;;4992933;28;20404;-73
2021/09/02 12:57:55;;;;;;;;;;;23.10;99.90;;;;;;4981609;28;19936;-73
2021/09/02 13:00:33;;;;;;;;;;;23.20;99.90;;;;;;4992723;28;19925;-72
2021/09/02 13:03:00;;;;;;;;;;;23.20;99.90;;;;;;4974246;28;20463;-72
2021/09/02 13:05:33;;;;;;;;;;;23.20;99.90;;;;;;4975006;28;19981;-73
2021/09/02 13:08:05;;;;;;;;;;;23.20;99.90;;;;;;4993261;28;19925;-74
2021/09/02 13:10:33;;;;;;;;;;;23.30;99.90;;;;;;4975826;28;19926;-74
2021/09/02 13:13:05;;;;;;;;;;;23.30;99.90;;;;;;4960583;28;19926;-73
2021/09/02 13:15:38;;;;;;;;;;;23.30;99.90;;;;;;4992461;28;20406;-73
2021/09/02 13:18:09;;;;;;;;;;;23.40;99.90;;;;;;4992589;28;20017;-73
2021/09/02 13:20:41;;;;;;;;;;;23.40;99.60;;;;;;4974729;28;19932;-73
2021/09/02 13:23:12;;;;;;;;;;;23.50;99.90;;;;;;4982844;28;20013;-73
2021/09/02 13:25:39;;;;;;;;;;;23.60;99.90;;;;;;4987058;28;20020;-73
2021/09/02 13:28:11;;;;;;;;;;;23.60;98.90;;;;;;4941005;28;19930;-73
2021/09/02 13:30:43;;;;;;;;;;;23.70;98.70;;;;;;4963534;28;20372;-73
2021/09/02 13:33:14;;;;;;;;;;;23.60;98.30;;;;;;4972050;28;19957;-73
2021/09/02 13:35:46;;;;;;;;;;;23.70;98.40;;;;;;4973363;28;19945;-74
2021/09/02 13:38:13;;;;;;;;;;;23.70;98.00;;;;;;4992774;28;20056;-73
2021/09/02 13:40:44;;;;;;;;;;;23.80;97.50;;;;;;5004392;28;20020;-73
2021/09/02 13:43:16;;;;;;;;;;;23.90;98.40;;;;;;4960304;28;19925;-73
2021/09/02 13:45:44;;;;;;;;;;;23.90;99.10;;;;;;4990257;28;19929;-73
2021/09/02 13:48:11;;;;;;;;;;;24.00;96.40;;;;;;4990365;28;19968;-74
2021/09/02 13:50:42;;;;;;;;;;;24.10;97.60;;;;;;4974042;28;20389;-73
2021/09/02 13:53:14;;;;;;;;;;;24.00;97.00;;;;;;4973150;28;19926;-74
2021/09/02 13:55:46;;;;;;;;;;;24.00;96.80;;;;;;4991727;28;19932;-74
2021/09/02 13:58:13;;;;;;;;;;;24.10;96.60;;;;;;4990905;28;19929;-74
2021/09/02 14:00:44;;;;;;;;;;;24.10;96.20;;;;;;5006457;28;20459;-74
2021/09/02 14:03:11;;;;;;;;;;;24.10;96.00;;;;;;4974733;28;20004;-73
2021/09/02 14:05:43;;;;;;;;;;;24.20;96.50;;;;;;4991620;28;19936;-74
2021/09/02 14:08:14;;;;;;;;;;;24.20;97.90;;;;;;4968927;28;19926;-73
2021/09/02 14:10:41;;;;;;;;;;;24.40;97.90;;;;;;4991695;28;20028;-73
2021/09/02 14:13:13;;;;;;;;;;;24.50;96.60;;;;;;4954107;28;19934;-73
2021/09/02 14:15:39;;;;;;;;;;;24.50;95.30;;;;;;4972304;28;20467;-73
2021/09/02 14:18:06;;;;;;;;;;;24.60;95.40;;;;;;4955237;28;20273;-73
2021/09/02 14:20:38;;;;;;;;;;;24.80;95.70;;;;;;4954690;28;19936;-74
2021/09/02 14:23:09;;;;;;;;;;;24.80;94.80;;;;;;4956028;28;19941;-73
2021/09/02 14:25:41;;;;;;;;;;;24.90;95.70;;;;;;4990725;28;20018;-73
2021/09/02 14:28:13;;;;;;;;;;;24.90;94.50;;;;;;4989580;28;20028;-73
2021/09/02 14:30:46;;;;;;;;;;;25.10;94.80;;;;;;4957776;28;19926;-74
2021/09/02 14:33:12;;;;;;;;;;;25.30;94.00;;;;;;4990845;28;20622;-73
2021/09/02 14:35:39;;;;;;;;;;;25.40;93.20;;;;;;4956885;28;20020;-73
2021/09/02 14:38:06;;;;;;;;;;;25.50;92.90;;;;;;4973116;28;20024;-74
2021/09/02 14:40:38;;;;;;;;;;;25.70;93.00;;;;;;4989840;28;19959;-74